Terminal Aerodrome Forecast
Issued by NWS Sterling, VA

Current Version | Previous Version | Graphics & Text | Print | Product List | Glossary On
Versions: 1 2 3 4 5 6 7 8 9 10 11 12 13 14 15 16 17 18 19 20 21 22 23 24 25
000
FTUS41 KLWX 270836 AAB
TAFIAD
TAF AMD
KIAD 270836Z 2709/2812 19005KT P6SM SCT050 BKN090
      TEMPO 2709/2711 3SM +TSRA BKN040CB
     FM271600 20006KT P6SM VCTS BKN060CB
     FM272100 18006KT P6SM BKN090
     FM280700 VRB03KT P6SM FEW050 SCT140=

USA.gov is the U.S. government's official web portal to all federal, state and local government web resources and services.